Terminal Aerodrome Forecast
Issued by NWS

Home | Current Version | Previous Version | Text Only | Print | Product List | Glossary On
Versions: 1 2 3 4 5 6 7 8 9 10 11 12 13 14 15 16 17 18 19
361
FTUS44 KJAN 072322
TAFHKS
TAF
KHKS 072322Z 0800/0824 36003KT P6SM OVC015
     FM080600 36005KT P6SM OVC007
     FM080900 36009KT P6SM OVC015
     FM081300 36010KT P6SM OVC050
     FM081600 36012G18KT P6SM OVC150=

USA.gov is the U.S. government's official web portal to all federal, state and local government web resources and services.